createdAt,value
2018-09-17T00:00:42.360Z,12.30
2018-09-17T00:01:42.324Z,12.29
2018-09-17T00:02:42.356Z,12.32
2018-09-17T00:03:42.216Z,12.28
2018-09-17T00:04:42.198Z,12.29
2018-09-17T00:05:42.179Z,12.47
2018-09-17T00:06:42.186Z,12.43
2018-09-17T00:07:42.335Z,12.36
2018-09-17T00:08:42.266Z,12.36
2018-09-17T00:09:42.260Z,12.50
2018-09-17T00:10:42.199Z,12.48
2018-09-17T00:11:42.226Z,12.55
2018-09-17T00:12:42.169Z,12.53
2018-09-17T00:13:42.146Z,12.63
2018-09-17T00:14:42.207Z,12.66
2018-09-17T00:15:42.198Z,12.68
2018-09-17T00:16:42.128Z,12.66
2018-09-17T00:18:42.513Z,12.62
2018-09-17T00:19:42.106Z,12.58
2018-09-17T00:20:42.450Z,12.50
2018-09-17T00:21:41.927Z,12.50
2018-09-17T00:22:42.055Z,12.46
2018-09-17T00:23:41.898Z,12.47
2018-09-17T00:24:41.918Z,12.50
2018-09-17T00:25:41.957Z,12.54
2018-09-17T00:26:41.969Z,12.47
2018-09-17T00:27:41.978Z,12.51
2018-09-17T00:28:41.930Z,12.63
2018-09-17T00:29:41.998Z,12.55
2018-09-17T00:30:41.883Z,12.62
2018-09-17T00:31:41.861Z,12.61
2018-09-17T00:32:41.893Z,12.63
2018-09-17T00:33:41.698Z,12.59
2018-09-17T00:34:41.690Z,12.61
2018-09-17T00:35:41.665Z,12.47
2018-09-17T00:36:41.650Z,12.46
2018-09-17T00:37:41.630Z,12.48
2018-09-17T00:38:41.713Z,12.30
2018-09-17T00:39:41.598Z,12.33
2018-09-17T00:40:41.654Z,12.43
2018-09-17T00:42:41.894Z,12.44
2018-09-17T00:43:41.529Z,12.43
2018-09-17T00:44:41.631Z,12.46
2018-09-17T00:45:41.545Z,12.29
2018-09-17T00:46:41.477Z,12.29
2018-09-17T00:47:41.534Z,12.29
2018-09-17T00:48:41.514Z,12.38
2018-09-17T00:50:41.464Z,12.26
2018-09-17T00:51:41.485Z,12.23
2018-09-17T00:52:41.383Z,12.15
2018-09-17T00:53:41.353Z,12.15
2018-09-17T00:55:41.671Z,12.08
2018-09-17T00:57:41.390Z,12.13
2018-09-17T00:58:41.287Z,12.18
2018-09-17T00:59:41.253Z,12.29
2018-09-17T01:00:41.286Z,12.18
2018-09-17T01:01:41.219Z,12.23
2018-09-17T01:02:41.275Z,12.18
2018-09-17T01:03:41.241Z,12.18
2018-09-17T01:04:41.216Z,12.15
2018-09-17T01:05:41.151Z,12.17
2018-09-17T01:06:41.188Z,12.13
2018-09-17T01:07:41.116Z,12.15
2018-09-17T01:08:41.102Z,12.17
2018-09-17T01:09:41.152Z,12.17
2018-09-17T01:10:41.123Z,12.14
2018-09-17T01:11:41.048Z,12.18
2018-09-17T01:12:41.032Z,12.18
2018-09-17T01:13:41.121Z,12.18
2018-09-17T01:14:41.212Z,12.25
2018-09-17T01:15:41.035Z,12.21
2018-09-17T01:16:40.957Z,12.26
2018-09-17T01:17:40.942Z,12.21
2018-09-17T01:18:40.926Z,12.18
2018-09-17T01:19:40.962Z,12.05
2018-09-17T01:20:40.952Z,11.99
2018-09-17T01:21:40.937Z,11.88
2018-09-17T01:22:40.855Z,11.77
2018-09-17T01:23:40.917Z,11.82
2018-09-17T01:24:40.993Z,11.85
2018-09-17T01:25:40.883Z,11.79
2018-09-17T01:26:40.784Z,11.82
2018-09-17T01:27:40.959Z,11.82
2018-09-17T01:28:40.775Z,11.71
2018-09-17T01:29:40.751Z,11.76
2018-09-17T01:30:40.786Z,11.74
2018-09-17T01:31:40.760Z,11.71
2018-09-17T01:32:40.680Z,11.80
2018-09-17T01:33:40.717Z,11.80
2018-09-17T01:34:40.649Z,11.77
2018-09-17T01:35:40.782Z,11.84
2018-09-17T01:36:40.607Z,11.79
2018-09-17T01:37:40.643Z,11.70
2018-09-17T01:38:40.741Z,11.59
2018-09-17T01:39:40.993Z,11.73
2018-09-17T01:42:40.505Z,11.58
2018-09-17T01:43:40.567Z,11.48
2018-09-17T01:44:40.468Z,11.49
2018-09-17T01:45:40.555Z,11.45
2018-09-17T01:46:40.438Z,11.38
2018-09-17T01:47:40.418Z,11.33
2018-09-17T01:48:40.450Z,11.31
2018-09-17T01:49:40.387Z,11.38
2018-09-17T01:50:40.366Z,11.36
2018-09-17T01:51:40.394Z,11.22
2018-09-17T01:52:40.399Z,11.28
2018-09-17T01:53:40.316Z,11.28
2018-09-17T01:54:40.343Z,11.28
2018-09-17T01:55:40.278Z,11.30
2018-09-17T01:56:40.256Z,11.30
2018-09-17T01:58:40.373Z,11.34
2018-09-17T01:59:40.204Z,11.41
2018-09-17T02:00:40.186Z,11.37
2018-09-17T02:01:40.168Z,11.36
2018-09-17T02:02:40.327Z,11.31
2018-09-17T02:03:40.210Z,11.34
2018-09-17T02:04:40.168Z,11.34
2018-09-17T02:05:40.174Z,11.36
2018-09-17T02:06:40.080Z,11.36
2018-09-17T02:07:40.125Z,11.25
2018-09-17T02:08:40.132Z,11.23
2018-09-17T02:09:40.127Z,11.23
2018-09-17T02:10:40.157Z,11.16
2018-09-17T02:11:40.140Z,11.20
2018-09-17T02:12:40.077Z,11.31
2018-09-17T02:13:40.110Z,11.28
2018-09-17T02:14:39.934Z,11.20
2018-09-17T02:15:40.023Z,11.27
2018-09-17T02:17:39.938Z,11.18
2018-09-17T02:18:40.231Z,11.16
2018-09-17T02:19:39.848Z,11.19
2018-09-17T02:20:39.832Z,11.18
2018-09-17T02:21:39.812Z,11.18
2018-09-17T02:22:39.794Z,11.08
2018-09-17T02:23:39.825Z,11.23
2018-09-17T02:24:39.755Z,11.19
2018-09-17T02:25:39.740Z,11.20
2018-09-17T02:26:39.749Z,11.19
2018-09-17T02:27:39.703Z,11.20
2018-09-17T02:28:39.687Z,11.16
2018-09-17T02:29:39.770Z,11.16
2018-09-17T02:30:39.649Z,11.09
2018-09-17T02:31:39.640Z,11.08
2018-09-17T02:32:39.662Z,11.01
2018-09-17T02:33:39.600Z,10.90
2018-09-17T02:34:39.589Z,11.03
2018-09-17T02:35:39.617Z,10.98
2018-09-17T02:36:39.546Z,10.97
2018-09-17T02:37:39.529Z,10.95
2018-09-17T02:38:39.505Z,10.95
2018-09-17T02:40:39.470Z,11.04
2018-09-17T02:41:39.505Z,11.08
2018-09-17T02:42:39.434Z,11.01
2018-09-17T02:43:39.417Z,11.01
2018-09-17T02:44:39.399Z,10.98
2018-09-17T02:45:39.383Z,10.95
2018-09-17T02:46:39.365Z,10.97
2018-09-17T02:47:39.449Z,10.97
2018-09-17T02:48:39.377Z,11.05
2018-09-17T02:49:39.317Z,11.15
2018-09-17T02:50:39.289Z,11.20
2018-09-17T02:51:39.377Z,11.22
2018-09-17T02:52:39.252Z,11.41
2018-09-17T02:53:39.367Z,11.70
2018-09-17T02:54:39.290Z,11.82
2018-09-17T02:55:39.200Z,11.97
2018-09-17T02:57:39.160Z,12.08
2018-09-17T02:58:39.211Z,12.15
2018-09-17T02:59:39.278Z,12.15
2018-09-17T03:00:39.224Z,12.15
2018-09-17T03:01:39.090Z,12.00
2018-09-17T03:03:39.155Z,11.95
2018-09-17T03:04:39.088Z,11.84
2018-09-17T03:05:39.069Z,11.82
2018-09-17T03:07:39.387Z,11.76
2018-09-17T03:08:38.967Z,11.73
2018-09-17T03:09:38.952Z,11.69
2018-09-17T03:10:38.931Z,11.69
2018-09-17T03:11:38.961Z,11.70
2018-09-17T03:12:38.947Z,11.62
2018-09-17T03:13:38.976Z,11.62
2018-09-17T03:14:38.859Z,11.58
2018-09-17T03:15:38.891Z,11.69
2018-09-17T03:16:39.005Z,11.59
2018-09-17T03:17:38.925Z,11.55
2018-09-17T03:18:39.105Z,11.54
2018-09-17T03:19:38.968Z,11.48
2018-09-17T03:20:38.915Z,11.54
2018-09-17T03:21:38.807Z,11.41
2018-09-17T03:22:38.788Z,11.40
2018-09-17T03:23:38.820Z,11.31
2018-09-17T03:24:38.741Z,11.30
2018-09-17T03:25:38.659Z,11.38
2018-09-17T03:26:38.640Z,11.27
2018-09-17T03:27:38.674Z,11.30
2018-09-17T03:28:38.614Z,11.36
2018-09-17T03:29:38.637Z,11.36
2018-09-17T03:30:38.575Z,11.28
2018-09-17T03:31:38.705Z,11.20
2018-09-17T03:32:38.534Z,11.22
2018-09-17T03:33:38.519Z,11.16
2018-09-17T03:34:38.509Z,11.22
2018-09-17T03:35:38.529Z,11.19
2018-09-17T03:36:38.468Z,11.18
2018-09-17T03:37:38.447Z,11.13
2018-09-17T03:38:38.438Z,11.13
2018-09-17T03:39:38.411Z,11.12
2018-09-17T03:40:38.391Z,11.13
2018-09-17T03:41:38.427Z,11.16
2018-09-17T03:42:38.359Z,11.09
2018-09-17T03:43:38.345Z,11.13
2018-09-17T03:44:38.319Z,11.12
2018-09-17T03:45:38.305Z,11.11
2018-09-17T03:46:38.319Z,11.09
2018-09-17T03:47:38.315Z,11.09
2018-09-17T03:48:38.247Z,11.11
2018-09-17T03:49:38.229Z,11.12
2018-09-17T03:50:38.264Z,11.09
2018-09-17T03:51:38.204Z,11.15
2018-09-17T03:52:38.178Z,11.15
2018-09-17T03:53:38.283Z,11.18
2018-09-17T03:54:38.182Z,11.16
2018-09-17T03:55:38.127Z,11.16
2018-09-17T03:56:38.106Z,11.09
2018-09-17T03:57:38.085Z,11.22
2018-09-17T03:58:38.074Z,11.13
2018-09-17T03:59:38.101Z,11.16
2018-09-17T04:00:38.032Z,11.08
2018-09-17T04:01:38.018Z,11.23
2018-09-17T04:02:37.996Z,11.19
2018-09-17T04:03:38.060Z,11.19
2018-09-17T04:04:38.038Z,11.20
2018-09-17T04:05:37.997Z,11.18
2018-09-17T04:06:37.924Z,11.20
2018-09-17T04:07:37.906Z,11.19
2018-09-17T04:08:37.887Z,11.20
2018-09-17T04:09:37.871Z,11.09
2018-09-17T04:10:37.853Z,11.23
2018-09-17T04:11:37.884Z,11.19
2018-09-17T04:12:37.816Z,11.19
2018-09-17T04:13:37.850Z,11.23
2018-09-17T04:14:37.785Z,11.23
2018-09-17T04:15:37.813Z,11.19
2018-09-17T04:16:37.749Z,11.23
2018-09-17T04:17:37.889Z,11.23
2018-09-17T04:18:37.738Z,11.33
2018-09-17T04:19:37.774Z,11.40
2018-09-17T04:20:37.744Z,11.31
2018-09-17T04:21:37.654Z,11.33
2018-09-17T04:22:37.652Z,11.28
2018-09-17T04:23:37.720Z,11.33
2018-09-17T04:24:37.599Z,11.33
2018-09-17T04:26:37.935Z,11.20
2018-09-17T04:27:37.548Z,11.23
2018-09-17T04:29:37.822Z,11.19
2018-09-17T04:30:37.490Z,11.20
2018-09-17T04:32:37.826Z,11.20
2018-09-17T04:33:37.449Z,11.31
2018-09-17T04:34:37.496Z,11.31
2018-09-17T04:35:37.454Z,11.43
2018-09-17T04:36:37.384Z,11.43
2018-09-17T04:37:37.391Z,11.38
2018-09-17T04:38:37.348Z,11.41
2018-09-17T04:39:37.351Z,11.45
2018-09-17T04:40:37.310Z,11.40
2018-09-17T04:41:37.354Z,11.48
2018-09-17T04:42:37.374Z,11.51
2018-09-17T04:43:37.263Z,11.64
2018-09-17T04:44:37.304Z,11.59
2018-09-17T04:45:37.284Z,11.67
2018-09-17T04:46:37.206Z,11.77
2018-09-17T04:47:37.291Z,11.73
2018-09-17T04:48:37.877Z,11.70
2018-09-17T04:49:37.150Z,11.77
2018-09-17T04:50:37.200Z,11.71
2018-09-17T04:51:37.337Z,11.64
2018-09-17T04:52:37.131Z,11.56
2018-09-17T04:53:37.128Z,11.64
2018-09-17T04:54:37.060Z,11.64
2018-09-17T04:55:37.043Z,11.62
2018-09-17T04:56:37.025Z,11.64
2018-09-17T04:58:37.040Z,11.70
2018-09-17T04:59:37.198Z,11.73
2018-09-17T05:01:37.617Z,11.80
2018-09-17T05:02:37.029Z,11.89
2018-09-17T05:03:36.899Z,11.93
2018-09-17T05:04:36.880Z,12.04
2018-09-17T05:05:37.012Z,11.87
2018-09-17T05:07:37.135Z,11.93
2018-09-17T05:08:36.808Z,11.87
2018-09-17T05:10:36.780Z,11.82
2018-09-17T05:11:36.808Z,11.85
2018-09-17T05:12:36.739Z,11.73
2018-09-17T05:13:37.171Z,11.70
2018-09-17T05:14:36.707Z,11.55
2018-09-17T05:15:36.692Z,11.48
2018-09-17T05:16:36.669Z,11.43
2018-09-17T05:17:36.771Z,11.41
2018-09-17T05:18:36.632Z,11.34
2018-09-17T05:19:36.914Z,11.36
2018-09-17T05:20:36.611Z,11.25
2018-09-17T05:21:36.640Z,11.27
2018-09-17T05:22:36.560Z,11.23
2018-09-17T05:23:36.590Z,11.31
2018-09-17T05:24:36.529Z,11.23
2018-09-17T05:25:36.864Z,11.22
2018-09-17T05:26:36.521Z,11.19
2018-09-17T05:27:36.548Z,11.22
2018-09-17T05:30:36.470Z,11.27
2018-09-17T05:31:36.759Z,11.30
2018-09-17T05:32:36.438Z,11.23
2018-09-17T05:33:36.365Z,11.27
2018-09-17T05:34:38.191Z,11.34
2018-09-17T05:35:36.389Z,11.33
2018-09-17T05:36:36.389Z,11.40
2018-09-17T05:37:36.648Z,11.40
2018-09-17T05:38:36.324Z,11.54
2018-09-17T05:40:36.424Z,11.56
2018-09-17T05:41:36.228Z,11.59
2018-09-17T05:42:36.269Z,11.62
2018-09-17T05:43:36.538Z,11.76
2018-09-17T05:44:36.220Z,11.73
2018-09-17T05:45:36.149Z,11.62
2018-09-17T05:47:36.168Z,11.77
2018-09-17T05:48:36.548Z,11.89
2018-09-17T05:50:36.413Z,11.91
2018-09-17T05:51:36.129Z,11.89
2018-09-17T05:52:36.239Z,11.96
2018-09-17T05:53:36.113Z,11.97
2018-09-17T05:55:35.977Z,12.13
2018-09-17T05:58:36.035Z,12.23
2018-09-17T05:59:35.936Z,12.32
2018-09-17T06:00:42.309Z,12.28
2018-09-17T06:01:35.878Z,12.26
2018-09-17T06:02:36.208Z,12.25
2018-09-17T06:03:35.907Z,12.44
2018-09-17T06:04:36.007Z,12.40
2018-09-17T06:05:35.867Z,12.44
2018-09-17T06:07:36.168Z,12.47
2018-09-17T06:08:36.100Z,12.43
2018-09-17T06:10:35.764Z,12.47
2018-09-17T06:11:35.785Z,12.50
2018-09-17T06:12:35.714Z,12.48
2018-09-17T06:13:35.780Z,12.59
2018-09-17T06:14:36.072Z,12.68
2018-09-17T06:15:35.728Z,12.73
2018-09-17T06:16:35.677Z,12.87
2018-09-17T06:17:35.647Z,12.88
2018-09-17T06:18:35.589Z,13.04
2018-09-17T06:19:36.211Z,13.11
2018-09-17T06:20:35.898Z,13.04
2018-09-17T06:22:35.568Z,13.19
2018-09-17T06:23:35.495Z,13.19
2018-09-17T06:24:35.581Z,13.32
2018-09-17T06:25:35.927Z,13.38
2018-09-17T06:26:35.827Z,13.43
2018-09-17T06:27:35.495Z,13.43
2018-09-17T06:28:35.626Z,13.45
2018-09-17T06:29:35.427Z,13.58
2018-09-17T06:32:35.812Z,13.57
2018-09-17T06:33:35.407Z,13.75
2018-09-17T06:34:35.339Z,13.73
2018-09-17T06:35:35.451Z,13.80
2018-09-17T06:36:35.350Z,13.93
2018-09-17T06:37:35.332Z,13.98
2018-09-17T06:38:35.623Z,14.04
2018-09-17T06:39:35.336Z,14.11
2018-09-17T06:40:35.275Z,14.11
2018-09-17T06:41:35.206Z,14.19
2018-09-17T06:42:35.232Z,14.22
2018-09-17T06:43:35.468Z,14.27
2018-09-17T06:44:35.204Z,14.33
2018-09-17T06:45:35.294Z,14.34
2018-09-17T06:46:35.175Z,14.53
2018-09-17T06:48:35.242Z,14.58
2018-09-17T06:49:35.124Z,14.59
2018-09-17T06:50:35.492Z,14.61
2018-09-17T06:51:35.143Z,14.59
2018-09-17T06:53:35.188Z,14.86
2018-09-17T06:54:36.812Z,14.90
2018-09-17T06:55:35.040Z,14.90
2018-09-17T06:56:35.316Z,14.86
2018-09-17T06:57:35.010Z,14.92
2018-09-17T06:58:34.986Z,14.99
2018-09-17T06:59:36.216Z,15.10
2018-09-17T07:00:34.952Z,15.08
2018-09-17T07:01:34.967Z,15.25
2018-09-17T07:02:35.273Z,15.19
2018-09-17T07:03:34.854Z,15.23
2018-09-17T07:04:34.848Z,15.29
2018-09-17T07:05:34.858Z,15.35
2018-09-17T07:06:34.905Z,15.30
2018-09-17T07:07:34.847Z,15.29
2018-09-17T07:09:35.248Z,15.50
2018-09-17T07:10:34.798Z,15.45
2018-09-17T07:11:34.791Z,15.47
2018-09-17T07:12:34.773Z,15.51
2018-09-17T07:13:34.699Z,15.54
2018-09-17T07:14:34.692Z,15.56
2018-09-17T07:16:35.314Z,15.56
2018-09-17T07:18:34.630Z,15.66
2018-09-17T07:19:34.688Z,15.72
2018-09-17T07:20:34.722Z,15.73
2018-09-17T07:21:34.648Z,15.77
2018-09-17T07:22:35.080Z,15.81
2018-09-17T07:23:34.575Z,15.87
2018-09-17T07:24:34.604Z,15.83
2018-09-17T07:25:34.609Z,15.95
2018-09-17T07:26:34.703Z,16.09
2018-09-17T07:27:34.582Z,16.18
2018-09-17T07:28:34.897Z,16.29
2018-09-17T07:29:34.498Z,16.26
2018-09-17T07:30:34.502Z,16.39
2018-09-17T07:31:34.452Z,16.46
2018-09-17T07:32:34.537Z,16.59
2018-09-17T07:33:34.657Z,16.59
2018-09-17T07:34:34.749Z,16.65
2018-09-17T07:35:34.384Z,16.72
2018-09-17T07:36:34.435Z,16.73
2018-09-17T07:38:34.690Z,16.87
2018-09-17T07:39:34.339Z,16.97
2018-09-17T07:40:34.704Z,16.97
2018-09-17T07:41:34.359Z,17.02
2018-09-17T07:42:34.337Z,17.06
2018-09-17T07:43:34.483Z,17.09
2018-09-17T07:44:34.345Z,17.22
2018-09-17T07:45:34.594Z,17.32
2018-09-17T07:46:34.725Z,17.46
2018-09-17T07:47:34.280Z,17.69
2018-09-17T07:48:34.249Z,17.86
2018-09-17T07:49:34.263Z,18.09
2018-09-17T07:50:34.245Z,18.11
2018-09-17T07:51:34.277Z,18.34
2018-09-17T07:52:34.550Z,18.48
2018-09-17T07:53:34.126Z,18.56
2018-09-17T07:55:34.164Z,18.81
2018-09-17T07:56:34.243Z,18.89
2018-09-17T07:57:34.075Z,19.04
2018-09-17T07:58:34.857Z,19.08
2018-09-17T07:59:34.100Z,19.26
2018-09-17T08:01:34.086Z,19.52
2018-09-17T08:02:34.111Z,19.60
2018-09-17T08:03:34.365Z,19.72
2018-09-17T08:05:34.443Z,19.50
2018-09-17T08:06:34.011Z,19.53
2018-09-17T08:07:34.105Z,19.41
2018-09-17T08:08:34.006Z,19.41
2018-09-17T08:09:33.971Z,19.45
2018-09-17T08:10:33.968Z,19.39
2018-09-17T08:11:34.308Z,19.49
2018-09-17T08:12:34.036Z,19.54
2018-09-17T08:13:33.963Z,19.62
2018-09-17T08:14:33.913Z,19.63
2018-09-17T08:15:34.047Z,19.79
2018-09-17T08:16:33.969Z,19.97
2018-09-17T08:17:34.557Z,20.11
2018-09-17T08:18:33.894Z,20.07
2018-09-17T08:19:34.097Z,20.29
2018-09-17T08:20:33.909Z,20.49
2018-09-17T08:21:33.950Z,20.65
2018-09-17T08:22:33.908Z,20.79
2018-09-17T08:24:33.846Z,20.64
2018-09-17T08:25:33.894Z,20.73
2018-09-17T08:27:34.113Z,20.82
2018-09-17T08:28:33.685Z,20.86
2018-09-17T08:30:33.712Z,21.18
2018-09-17T08:31:33.715Z,21.23
2018-09-17T08:32:33.717Z,21.26
2018-09-17T08:34:33.740Z,21.55
2018-09-17T08:35:34.537Z,21.65
2018-09-17T08:38:33.569Z,21.90
2018-09-17T08:39:33.614Z,22.06
2018-09-17T08:40:33.629Z,22.18
2018-09-17T08:42:33.951Z,22.33
2018-09-17T08:43:34.582Z,22.52
2018-09-17T08:44:33.498Z,22.53
2018-09-17T08:45:33.508Z,22.41
2018-09-17T08:46:33.723Z,22.31
2018-09-17T08:47:33.475Z,22.37
2018-09-17T08:48:35.069Z,22.22
2018-09-17T08:49:33.629Z,22.15
2018-09-17T08:50:33.496Z,22.34
2018-09-17T08:51:33.491Z,22.46
2018-09-17T08:52:33.480Z,22.62
2018-09-17T08:53:33.466Z,22.80
2018-09-17T08:54:33.804Z,22.99
2018-09-17T08:55:33.564Z,23.04
2018-09-17T08:56:33.434Z,23.07
2018-09-17T08:57:33.423Z,23.21
2018-09-17T08:58:33.426Z,23.22
2018-09-17T08:59:33.366Z,23.29
2018-09-17T09:00:33.700Z,23.44
2018-09-17T09:01:33.421Z,23.33
2018-09-17T09:02:33.365Z,23.34
2018-09-17T09:03:33.364Z,23.26
2018-09-17T09:04:33.368Z,23.28
2018-09-17T09:06:33.953Z,23.45
2018-09-17T09:07:33.758Z,23.51
2018-09-17T09:08:33.451Z,23.49
2018-09-17T09:09:33.704Z,23.60
2018-09-17T09:10:33.330Z,23.71
2018-09-17T09:11:33.293Z,23.85
2018-09-17T09:12:33.785Z,23.88
2018-09-17T09:13:33.340Z,23.84
2018-09-17T09:14:33.357Z,23.81
2018-09-17T09:15:33.305Z,23.85
2018-09-17T09:16:33.294Z,23.94
2018-09-17T09:17:33.231Z,23.91
2018-09-17T09:19:33.454Z,23.84
2018-09-17T09:20:33.214Z,23.91
2018-09-17T09:21:33.416Z,23.98
2018-09-17T09:22:33.280Z,24.19
2018-09-17T09:23:33.232Z,24.33
2018-09-17T09:25:33.462Z,24.23
2018-09-17T09:26:33.264Z,24.29
2018-09-17T09:27:33.152Z,24.56
2018-09-17T09:28:33.186Z,24.55
2018-09-17T09:29:33.144Z,24.45
2018-09-17T09:30:33.142Z,24.55
2018-09-17T09:31:33.415Z,24.51
2018-09-17T09:32:33.077Z,24.78
2018-09-17T09:33:33.101Z,25.15
2018-09-17T09:34:33.045Z,25.48
2018-09-17T09:35:33.082Z,25.45
2018-09-17T09:36:34.744Z,25.40
2018-09-17T09:37:33.423Z,25.52
2018-09-17T09:38:33.116Z,25.53
2018-09-17T09:39:33.052Z,25.52
2018-09-17T09:41:33.195Z,25.19
2018-09-17T09:42:32.978Z,25.16
2018-09-17T09:43:33.422Z,25.26
2018-09-17T09:44:33.100Z,25.33
2018-09-17T09:45:33.269Z,25.09
2018-09-17T09:46:32.935Z,25.21
2018-09-17T09:47:33.159Z,25.14
2018-09-17T09:48:32.922Z,25.11
2018-09-17T09:49:33.580Z,25.34
2018-09-17T09:50:32.905Z,25.26
2018-09-17T09:51:33.045Z,25.11
2018-09-17T09:52:33.284Z,25.11
2018-09-17T09:53:36.379Z,25.14
2018-09-17T09:54:32.938Z,25.16
2018-09-17T09:55:33.235Z,25.26
2018-09-17T09:56:32.914Z,25.33
2018-09-17T09:57:32.949Z,25.30
2018-09-17T09:58:32.904Z,25.33
2018-09-17T10:00:32.881Z,25.38
2018-09-17T10:03:32.824Z,25.08
2018-09-17T10:04:32.853Z,25.04
2018-09-17T10:05:32.864Z,24.70
2018-09-17T10:06:33.175Z,24.71
2018-09-17T10:07:32.847Z,24.74
2018-09-17T10:08:33.183Z,24.75
2018-09-17T10:09:33.047Z,24.99
2018-09-17T10:10:32.817Z,25.09
2018-09-17T10:11:32.881Z,25.15
2018-09-17T10:14:33.089Z,25.37
2018-09-17T10:15:32.783Z,25.38
2018-09-17T10:16:32.887Z,25.27
2018-09-17T10:17:32.735Z,25.28
2018-09-17T10:18:32.759Z,25.14
2018-09-17T10:19:32.758Z,25.09
2018-09-17T10:20:33.062Z,25.46
2018-09-17T10:21:32.757Z,25.81
2018-09-17T10:22:32.766Z,25.86
2018-09-17T10:23:32.978Z,25.85
2018-09-17T10:24:32.750Z,26.01
2018-09-17T10:25:32.760Z,26.31
2018-09-17T10:26:33.007Z,26.36
2018-09-17T10:27:32.730Z,26.94
2018-09-17T10:28:32.724Z,27.08
2018-09-17T10:29:32.857Z,27.13
2018-09-17T10:30:32.865Z,27.32
2018-09-17T10:31:32.700Z,27.15
2018-09-17T10:33:33.031Z,26.93
2018-09-17T10:36:32.810Z,27.08
2018-09-17T10:37:32.791Z,27.03
2018-09-17T10:38:34.051Z,27.07
2018-09-17T10:39:33.070Z,27.17
2018-09-17T10:40:37.809Z,26.97
2018-09-17T10:41:32.636Z,27.00
2018-09-17T10:42:32.690Z,27.13
2018-09-17T10:43:32.800Z,26.95
2018-09-17T10:44:32.597Z,26.95
2018-09-17T10:46:32.690Z,26.89
2018-09-17T10:47:33.034Z,26.80
2018-09-17T10:48:32.625Z,26.65
2018-09-17T10:49:33.153Z,26.64
2018-09-17T10:50:32.578Z,26.82
2018-09-17T10:51:33.040Z,26.78
2018-09-17T10:52:32.753Z,26.70
2018-09-17T10:53:32.599Z,26.60
2018-09-17T10:54:32.722Z,26.41
2018-09-17T10:55:32.628Z,26.16
2018-09-17T10:56:32.599Z,26.20
2018-09-17T10:58:32.928Z,26.15
2018-09-17T10:59:32.532Z,26.27
2018-09-17T11:00:32.719Z,26.52
2018-09-17T11:01:32.641Z,26.64
2018-09-17T11:02:32.567Z,26.75
2018-09-17T11:04:32.915Z,26.65
2018-09-17T11:05:32.548Z,26.56
2018-09-17T11:06:32.952Z,26.51
2018-09-17T11:07:32.694Z,26.49
2018-09-17T11:08:32.489Z,26.61
2018-09-17T11:09:32.508Z,26.75
2018-09-17T11:10:32.928Z,26.95
2018-09-17T11:11:32.530Z,27.04
2018-09-17T11:12:32.590Z,27.27
2018-09-17T11:13:32.510Z,27.32
2018-09-17T11:14:32.549Z,27.16
2018-09-17T11:15:32.497Z,27.32
2018-09-17T11:16:32.859Z,27.00
2018-09-17T11:17:32.510Z,27.05
2018-09-17T11:20:05.968Z,27.10
2018-09-17T11:20:33.017Z,26.90
2018-09-17T11:25:32.482Z,26.90
2018-09-17T11:26:32.414Z,26.80
2018-09-17T11:27:32.449Z,26.83
2018-09-17T11:28:32.754Z,26.89
2018-09-17T11:29:32.883Z,26.76
2018-09-17T11:30:32.796Z,26.90
2018-09-17T11:31:33.317Z,26.93
2018-09-17T11:33:32.692Z,26.80
2018-09-17T11:34:33.208Z,27.08
2018-09-17T11:35:32.414Z,27.17
2018-09-17T11:36:33.292Z,27.27
2018-09-17T11:37:34.990Z,27.12
2018-09-17T11:38:32.417Z,27.15
2018-09-17T11:39:32.460Z,27.01
2018-09-17T11:40:32.699Z,26.95
2018-09-17T11:41:32.392Z,26.94
2018-09-17T11:42:32.335Z,26.97
2018-09-17T11:43:32.746Z,26.97
2018-09-17T11:45:32.702Z,26.75
2018-09-17T11:46:32.627Z,26.95
2018-09-17T11:47:32.315Z,27.01
2018-09-17T11:49:32.376Z,27.04
2018-09-17T11:51:32.338Z,27.25
2018-09-17T11:52:32.636Z,27.47
2018-09-17T11:53:32.420Z,27.49
2018-09-17T11:54:32.281Z,27.66
2018-09-17T11:55:32.335Z,27.72
2018-09-17T11:56:32.690Z,28.00
2018-09-17T11:57:32.310Z,28.06
2018-09-17T11:58:32.780Z,27.70
2018-09-17T11:59:38.621Z,27.69
2018-09-17T12:00:32.334Z,27.58
2018-09-17T12:02:32.313Z,27.64
2018-09-17T12:03:32.541Z,27.85
2018-09-17T12:04:32.645Z,27.76
2018-09-17T12:05:32.279Z,27.85
2018-09-17T12:06:32.473Z,27.76
2018-09-17T12:07:32.296Z,27.70
2018-09-17T12:08:32.326Z,27.54
2018-09-17T12:09:32.266Z,27.70
2018-09-17T12:10:32.570Z,27.80
2018-09-17T12:11:32.209Z,28.05
2018-09-17T12:12:32.210Z,28.22
2018-09-17T12:13:33.115Z,28.12
2018-09-17T12:14:32.700Z,28.00
2018-09-17T12:15:32.333Z,28.19
2018-09-17T12:16:32.855Z,28.24
2018-09-17T12:17:32.296Z,28.43
2018-09-17T12:18:32.196Z,28.68
2018-09-17T12:19:32.225Z,28.83
2018-09-17T12:21:32.203Z,28.77
2018-09-17T12:22:32.630Z,28.68
2018-09-17T12:24:32.207Z,28.64
2018-09-17T12:25:32.246Z,28.74
2018-09-17T12:26:32.355Z,28.62
2018-09-17T12:27:32.190Z,28.72
2018-09-17T12:28:32.499Z,28.71
2018-09-17T12:30:32.202Z,29.02
2018-09-17T12:31:32.396Z,28.84
2018-09-17T12:33:32.258Z,29.22
2018-09-17T12:34:32.471Z,29.19
2018-09-17T12:36:39.033Z,29.13
2018-09-17T12:37:32.158Z,29.19
2018-09-17T12:38:32.157Z,29.04
2018-09-17T12:39:32.143Z,28.91
2018-09-17T12:40:32.455Z,28.86
2018-09-17T12:41:32.173Z,28.74
2018-09-17T12:42:32.651Z,28.71
2018-09-17T12:43:32.102Z,28.66
2018-09-17T12:44:32.644Z,28.61
2018-09-17T12:45:32.137Z,28.66
2018-09-17T12:46:32.423Z,28.72
2018-09-17T12:47:32.101Z,28.87
2018-09-17T12:48:32.159Z,28.68
2018-09-17T12:49:32.117Z,28.81
2018-09-17T12:50:32.121Z,28.69
2018-09-17T12:51:32.152Z,28.49
2018-09-17T12:53:32.209Z,28.31
2018-09-17T12:54:32.074Z,28.10
2018-09-17T12:55:32.054Z,28.20
2018-09-17T12:56:32.103Z,28.38
2018-09-17T12:57:32.218Z,28.35
2018-09-17T12:58:32.357Z,28.25
2018-09-17T12:59:32.212Z,28.31
2018-09-17T13:00:32.251Z,28.46
2018-09-17T13:01:33.387Z,28.50
2018-09-17T13:02:32.258Z,28.79
2018-09-17T13:03:32.101Z,29.09
2018-09-17T13:04:32.479Z,29.10
2018-09-17T13:05:32.071Z,29.03
2018-09-17T13:06:32.132Z,29.27
2018-09-17T13:07:32.045Z,29.55
2018-09-17T13:09:32.041Z,30.22
2018-09-17T13:10:32.266Z,30.20
2018-09-17T13:11:32.089Z,29.78
2018-09-17T13:12:32.144Z,29.77
2018-09-17T13:13:32.202Z,30.15
2018-09-17T13:14:32.010Z,30.28
2018-09-17T13:15:32.001Z,30.62
2018-09-17T13:16:32.513Z,30.48
2018-09-17T13:17:32.008Z,30.26
2018-09-17T13:18:32.089Z,29.74
2018-09-17T13:19:32.039Z,29.33
2018-09-17T13:20:32.025Z,29.43
2018-09-17T13:21:31.993Z,29.50
2018-09-17T13:22:32.612Z,29.44
2018-09-17T13:23:31.948Z,29.55
2018-09-17T13:24:32.003Z,30.10
2018-09-17T13:25:32.040Z,30.39
2018-09-17T13:26:32.496Z,30.36
2018-09-17T13:27:31.951Z,29.98
2018-09-17T13:28:32.339Z,30.20
2018-09-17T13:29:31.955Z,30.26
2018-09-17T13:30:32.000Z,30.15
2018-09-17T13:31:31.968Z,29.83
2018-09-17T13:32:32.025Z,29.76
2018-09-17T13:33:31.907Z,29.62
2018-09-17T13:34:32.229Z,29.74
2018-09-17T13:35:31.977Z,29.29
2018-09-17T13:36:31.876Z,29.21
2018-09-17T13:37:32.035Z,29.13
2018-09-17T13:40:32.393Z,29.28
2018-09-17T13:41:32.063Z,29.29
2018-09-17T13:42:31.931Z,29.29
2018-09-17T13:43:31.923Z,29.39
2018-09-17T13:44:32.063Z,29.41
2018-09-17T13:45:31.899Z,29.46
2018-09-17T13:47:32.962Z,29.21
2018-09-17T13:48:31.903Z,28.84
2018-09-17T13:50:32.272Z,28.68
2018-09-17T13:51:32.138Z,28.72
2018-09-17T13:52:32.313Z,28.81
2018-09-17T13:54:33.256Z,28.71
2018-09-17T13:55:33.010Z,28.87
2018-09-17T13:56:31.856Z,29.04
2018-09-17T13:58:31.851Z,28.83
2018-09-17T13:59:32.449Z,28.74
2018-09-17T14:01:31.953Z,29.15
2018-09-17T14:02:31.803Z,29.34
2018-09-17T14:03:31.858Z,29.19
2018-09-17T14:04:32.039Z,29.28
2018-09-17T14:05:32.693Z,29.33
2018-09-17T14:06:31.824Z,29.34
2018-09-17T14:07:31.972Z,29.31
2018-09-17T14:08:31.738Z,29.40
2018-09-17T14:09:31.795Z,29.21
2018-09-17T14:10:31.781Z,29.18
2018-09-17T14:11:32.220Z,29.17
2018-09-17T14:12:31.781Z,28.65
2018-09-17T14:13:31.795Z,28.27
2018-09-17T14:14:31.775Z,28.20
2018-09-17T14:15:31.775Z,28.28
2018-09-17T14:16:31.783Z,28.38
2018-09-17T14:17:32.208Z,28.50
2018-09-17T14:18:31.796Z,28.69
2018-09-17T14:19:31.919Z,28.96
2018-09-17T14:20:31.909Z,29.12